sensor_id;sensor_type;location;lat;lon;timestamp;pressure;altitude;pressure_sealevel;temperature;humidity
70684;BME280;58263;48.146;11.440;2022-08-06T00:00:52;96071.03;;;19.85;77.67
70684;BME280;58263;48.146;11.440;2022-08-06T00:03:17;96083.78;;;19.90;77.46
70684;BME280;58263;48.146;11.440;2022-08-06T00:05:42;96077.53;;;19.89;76.69
70684;BME280;58263;48.146;11.440;2022-08-06T00:08:08;96076.56;;;20.09;76.47
70684;BME280;58263;48.146;11.440;2022-08-06T00:10:33;96088.88;;;20.02;77.27
70684;BME280;58263;48.146;11.440;2022-08-06T00:12:59;96090.59;;;19.87;77.07
70684;BME280;58263;48.146;11.440;2022-08-06T00:15:25;96103.13;;;19.78;78.29
70684;BME280;58263;48.146;11.440;2022-08-06T00:17:50;96111.75;;;20.01;78.36
70684;BME280;58263;48.146;11.440;2022-08-06T00:20:17;96113.22;;;19.77;77.43
70684;BME280;58263;48.146;11.440;2022-08-06T00:22:42;96109.13;;;19.85;77.69
70684;BME280;58263;48.146;11.440;2022-08-06T00:25:08;96105.84;;;19.88;76.69
70684;BME280;58263;48.146;11.440;2022-08-06T00:27:35;96108.25;;;19.95;77.95
70684;BME280;58263;48.146;11.440;2022-08-06T00:30:00;96111.84;;;19.85;77.85
70684;BME280;58263;48.146;11.440;2022-08-06T00:32:26;96100.47;;;19.73;77.50
70684;BME280;58263;48.146;11.440;2022-08-06T00:34:51;96102.53;;;19.91;77.04
70684;BME280;58263;48.146;11.440;2022-08-06T00:37:16;96087.66;;;19.73;77.07
70684;BME280;58263;48.146;11.440;2022-08-06T00:39:42;96091.22;;;19.69;78.43
70684;BME280;58263;48.146;11.440;2022-08-06T00:42:07;96088.16;;;19.86;77.08
70684;BME280;58263;48.146;11.440;2022-08-06T00:44:32;96089.28;;;19.80;77.49
70684;BME280;58263;48.146;11.440;2022-08-06T00:46:58;96087.88;;;19.87;76.59
70684;BME280;58263;48.146;11.440;2022-08-06T00:49:24;96082.03;;;19.54;75.90
70684;BME280;58263;48.146;11.440;2022-08-06T00:51:49;96078.72;;;19.63;77.48
70684;BME280;58263;48.146;11.440;2022-08-06T00:54:15;96099.94;;;19.66;77.93
70684;BME280;58263;48.146;11.440;2022-08-06T00:56:40;96098.03;;;19.66;77.56
70684;BME280;58263;48.146;11.440;2022-08-06T00:59:05;96110.31;;;19.58;77.25
70684;BME280;58263;48.146;11.440;2022-08-06T01:01:31;96113.09;;;19.43;77.79
70684;BME280;58263;48.146;11.440;2022-08-06T01:03:57;96110.34;;;19.48;77.25
70684;BME280;58263;48.146;11.440;2022-08-06T01:06:22;96098.97;;;19.41;77.12
70684;BME280;58263;48.146;11.440;2022-08-06T01:08:48;96093.22;;;19.48;76.27
70684;BME280;58263;48.146;11.440;2022-08-06T01:11:13;96091.94;;;19.30;76.17
70684;BME280;58263;48.146;11.440;2022-08-06T01:13:39;96083.19;;;19.38;76.72
70684;BME280;58263;48.146;11.440;2022-08-06T01:16:21;96079.09;;;19.40;76.71
70684;BME280;58263;48.146;11.440;2022-08-06T01:21:58;96077.75;;;19.43;75.11
70684;BME280;58263;48.146;11.440;2022-08-06T01:24:50;96084.78;;;19.49;75.47
70684;BME280;58263;48.146;11.440;2022-08-06T01:30:13;96090.47;;;19.53;75.97
70684;BME280;58263;48.146;11.440;2022-08-06T01:32:50;96078.25;;;19.45;75.90
70684;BME280;58263;48.146;11.440;2022-08-06T01:35:21;96074.13;;;19.58;75.42
70684;BME280;58263;48.146;11.440;2022-08-06T01:38:05;96068.94;;;19.56;76.78
70684;BME280;58263;48.146;11.440;2022-08-06T01:40:35;96076.59;;;19.54;75.55
70684;BME280;58263;48.146;11.440;2022-08-06T01:43:03;96072.19;;;19.64;75.53
70684;BME280;58263;48.146;11.440;2022-08-06T01:45:32;96072.53;;;19.52;76.25
70684;BME280;58263;48.146;11.440;2022-08-06T01:48:01;96080.69;;;19.47;77.04
70684;BME280;58263;48.146;11.440;2022-08-06T01:50:31;96088.81;;;19.62;75.80
70684;BME280;58263;48.146;11.440;2022-08-06T01:52:59;96088.53;;;19.58;75.80
70684;BME280;58263;48.146;11.440;2022-08-06T01:55:30;96092.63;;;19.61;76.33
70684;BME280;58263;48.146;11.440;2022-08-06T01:57:59;96083.69;;;19.50;76.51
70684;BME280;58263;48.146;11.440;2022-08-06T02:00:25;96093.47;;;19.51;76.83
70684;BME280;58263;48.146;11.440;2022-08-06T02:02:52;96095.63;;;19.54;76.76
70684;BME280;58263;48.146;11.440;2022-08-06T02:05:20;96090.75;;;19.51;76.45
70684;BME280;58263;48.146;11.440;2022-08-06T02:07:50;96105.22;;;19.41;76.82
70684;BME280;58263;48.146;11.440;2022-08-06T02:10:19;96097.31;;;19.40;77.34
70684;BME280;58263;48.146;11.440;2022-08-06T02:12:46;96093.50;;;19.41;76.92
70684;BME280;58263;48.146;11.440;2022-08-06T02:15:25;96088.56;;;19.48;76.66
70684;BME280;58263;48.146;11.440;2022-08-06T02:17:55;96089.44;;;19.43;76.85
70684;BME280;58263;48.146;11.440;2022-08-06T02:20:37;96083.19;;;19.38;77.46
70684;BME280;58263;48.146;11.440;2022-08-06T02:23:06;96091.88;;;19.45;76.80
70684;BME280;58263;48.146;11.440;2022-08-06T02:25:34;96091.31;;;19.48;76.73
70684;BME280;58263;48.146;11.440;2022-08-06T02:28:01;96096.78;;;19.43;76.71
70684;BME280;58263;48.146;11.440;2022-08-06T02:30:31;96093.53;;;19.36;76.94
70684;BME280;58263;48.146;11.440;2022-08-06T02:32:57;96086.13;;;19.47;77.03
70684;BME280;58263;48.146;11.440;2022-08-06T02:35:23;96095.13;;;19.47;77.64
70684;BME280;58263;48.146;11.440;2022-08-06T02:37:57;96092.94;;;19.44;76.60
70684;BME280;58263;48.146;11.440;2022-08-06T02:40:40;96084.84;;;19.34;77.26
70684;BME280;58263;48.146;11.440;2022-08-06T02:43:12;96082.94;;;19.34;76.92
70684;BME280;58263;48.146;11.440;2022-08-06T02:45:50;96088.66;;;19.28;77.95
70684;BME280;58263;48.146;11.440;2022-08-06T02:48:30;96077.78;;;19.28;77.90
70684;BME280;58263;48.146;11.440;2022-08-06T02:50:59;96078.63;;;19.28;78.10
70684;BME280;58263;48.146;11.440;2022-08-06T02:53:34;96091.44;;;19.22;78.36
70684;BME280;58263;48.146;11.440;2022-08-06T02:56:10;96080.78;;;19.31;78.45
70684;BME280;58263;48.146;11.440;2022-08-06T02:58:42;96078.56;;;19.33;77.88
70684;BME280;58263;48.146;11.440;2022-08-06T03:01:12;96079.91;;;19.41;78.34
70684;BME280;58263;48.146;11.440;2022-08-06T03:03:41;96080.47;;;19.38;78.92
70684;BME280;58263;48.146;11.440;2022-08-06T03:06:09;96080.47;;;19.43;78.28
70684;BME280;58263;48.146;11.440;2022-08-06T03:08:36;96078.81;;;19.42;78.24
70684;BME280;58263;48.146;11.440;2022-08-06T03:11:03;96079.41;;;19.29;78.64
70684;BME280;58263;48.146;11.440;2022-08-06T03:13:30;96077.22;;;19.36;78.70
70684;BME280;58263;48.146;11.440;2022-08-06T03:15:58;96077.75;;;19.38;78.19
70684;BME280;58263;48.146;11.440;2022-08-06T03:18:26;96086.72;;;19.43;78.30
70684;BME280;58263;48.146;11.440;2022-08-06T03:20:53;96090.78;;;19.46;77.77
70684;BME280;58263;48.146;11.440;2022-08-06T03:23:19;96086.97;;;19.47;78.05
70684;BME280;58263;48.146;11.440;2022-08-06T03:25:46;96089.94;;;19.51;78.90
70684;BME280;58263;48.146;11.440;2022-08-06T03:28:14;96088.09;;;19.36;79.26
70684;BME280;58263;48.146;11.440;2022-08-06T03:30:40;96095.16;;;19.42;78.61
70684;BME280;58263;48.146;11.440;2022-08-06T03:33:17;96107.59;;;19.53;78.25
70684;BME280;58263;48.146;11.440;2022-08-06T03:35:44;96111.41;;;19.52;78.66
70684;BME280;58263;48.146;11.440;2022-08-06T03:38:11;96102.16;;;19.53;79.24
70684;BME280;58263;48.146;11.440;2022-08-06T03:40:38;96109.53;;;19.48;79.25
70684;BME280;58263;48.146;11.440;2022-08-06T03:43:05;96110.34;;;19.48;79.82
70684;BME280;58263;48.146;11.440;2022-08-06T03:45:32;96113.13;;;19.33;78.93
70684;BME280;58263;48.146;11.440;2022-08-06T03:48:01;96110.91;;;19.45;77.47
70684;BME280;58263;48.146;11.440;2022-08-06T03:50:33;96113.09;;;19.43;78.89
70684;BME280;58263;48.146;11.440;2022-08-06T03:53:02;96118.00;;;19.36;77.41
70684;BME280;58263;48.146;11.440;2022-08-06T03:55:31;96112.31;;;19.37;77.68
70684;BME280;58263;48.146;11.440;2022-08-06T03:58:01;96120.22;;;19.34;77.50
70684;BME280;58263;48.146;11.440;2022-08-06T04:00:30;96118.56;;;19.43;76.50
70684;BME280;58263;48.146;11.440;2022-08-06T04:02:58;96122.63;;;19.46;76.23
70684;BME280;58263;48.146;11.440;2022-08-06T04:05:27;96117.50;;;19.34;77.90
70684;BME280;58263;48.146;11.440;2022-08-06T04:07:58;96125.66;;;19.29;77.15
70684;BME280;58263;48.146;11.440;2022-08-06T04:10:30;96126.22;;;19.31;77.71
70684;BME280;58263;48.146;11.440;2022-08-06T04:12:56;96116.97;;;19.27;78.65
70684;BME280;58263;48.146;11.440;2022-08-06T04:15:22;96124.00;;;19.33;78.55
70684;BME280;58263;48.146;11.440;2022-08-06T04:17:49;96134.38;;;19.25;78.18
70684;BME280;58263;48.146;11.440;2022-08-06T04:20:17;96138.97;;;19.35;77.98
70684;BME280;58263;48.146;11.440;2022-08-06T04:22:44;96145.28;;;19.20;78.29
70684;BME280;58263;48.146;11.440;2022-08-06T04:25:10;96153.97;;;19.22;78.83
70684;BME280;58263;48.146;11.440;2022-08-06T04:27:37;96157.78;;;19.06;77.16
70684;BME280;58263;48.146;11.440;2022-08-06T04:30:03;96163.78;;;19.03;77.71
70684;BME280;58263;48.146;11.440;2022-08-06T04:32:30;96169.22;;;19.03;77.83
70684;BME280;58263;48.146;11.440;2022-08-06T04:34:58;96175.75;;;19.12;78.16
70684;BME280;58263;48.146;11.440;2022-08-06T04:37:24;96169.75;;;19.10;77.41
70684;BME280;58263;48.146;11.440;2022-08-06T04:39:50;96178.47;;;19.12;75.93
70684;BME280;58263;48.146;11.440;2022-08-06T04:42:17;96170.03;;;19.19;77.10
70684;BME280;58263;48.146;11.440;2022-08-06T04:44:42;96171.13;;;19.07;77.02
70684;BME280;58263;48.146;11.440;2022-08-06T04:47:08;96182.00;;;19.07;76.25
70684;BME280;58263;48.146;11.440;2022-08-06T04:49:35;96183.63;;;19.14;76.02
70684;BME280;58263;48.146;11.440;2022-08-06T04:52:01;96180.94;;;18.93;77.44
70684;BME280;58263;48.146;11.440;2022-08-06T04:54:26;96180.94;;;19.03;76.64
70684;BME280;58263;48.146;11.440;2022-08-06T04:56:52;96181.75;;;19.04;76.75
70684;BME280;58263;48.146;11.440;2022-08-06T04:59:17;96196.16;;;18.89;76.60
70684;BME280;58263;48.146;11.440;2022-08-06T05:01:43;96199.69;;;18.89;76.48
70684;BME280;58263;48.146;11.440;2022-08-06T05:04:08;96196.97;;;18.95;76.46
70684;BME280;58263;48.146;11.440;2022-08-06T05:06:56;96207.28;;;19.03;75.86
70684;BME280;58263;48.146;11.440;2022-08-06T05:09:25;96200.75;;;18.83;76.60
70684;BME280;58263;48.146;11.440;2022-08-06T05:12:04;96195.34;;;18.88;75.99
70684;BME280;58263;48.146;11.440;2022-08-06T05:14:36;96212.16;;;18.75;75.96
70684;BME280;58263;48.146;11.440;2022-08-06T05:17:04;96219.78;;;18.63;76.10
70684;BME280;58263;48.146;11.440;2022-08-06T05:19:35;96219.75;;;18.68;76.24
70684;BME280;58263;48.146;11.440;2022-08-06T05:22:03;96225.47;;;18.56;76.52
70684;BME280;58263;48.146;11.440;2022-08-06T05:24:32;96230.13;;;18.76;77.32
70684;BME280;58263;48.146;11.440;2022-08-06T05:26:57;96226.56;;;18.70;76.36
70684;BME280;58263;48.146;11.440;2022-08-06T05:29:22;96235.50;;;18.55;76.65
70684;BME280;58263;48.146;11.440;2022-08-06T05:31:48;96231.72;;;18.62;77.20
70684;BME280;58263;48.146;11.440;2022-08-06T05:34:14;96234.16;;;18.48;77.11
70684;BME280;58263;48.146;11.440;2022-08-06T05:36:39;96241.75;;;18.51;77.20
70684;BME280;58263;48.146;11.440;2022-08-06T05:39:05;96239.78;;;18.20;77.86
70684;BME280;58263;48.146;11.440;2022-08-06T05:41:31;96238.94;;;18.10;77.58
70684;BME280;58263;48.146;11.440;2022-08-06T05:43:56;96243.28;;;18.16;78.23
70684;BME280;58263;48.146;11.440;2022-08-06T05:46:24;96239.25;;;18.23;79.23
70684;BME280;58263;48.146;11.440;2022-08-06T05:48:55;96242.25;;;18.32;78.17
70684;BME280;58263;48.146;11.440;2022-08-06T05:54:01;96243.63;;;18.30;77.04
70684;BME280;58263;48.146;11.440;2022-08-06T05:56:38;96245.22;;;18.31;77.10
70684;BME280;58263;48.146;11.440;2022-08-06T05:59:08;96255.47;;;18.03;77.46
70684;BME280;58263;48.146;11.440;2022-08-06T06:01:36;96262.25;;;18.00;78.00
70684;BME280;58263;48.146;11.440;2022-08-06T06:04:03;96270.16;;;18.12;77.21
70684;BME280;58263;48.146;11.440;2022-08-06T06:06:29;96273.44;;;18.19;77.51
70684;BME280;58263;48.146;11.440;2022-08-06T06:08:55;96265.31;;;18.19;77.02
70684;BME280;58263;48.146;11.440;2022-08-06T06:11:21;96270.16;;;18.12;78.04
70684;BME280;58263;48.146;11.440;2022-08-06T06:13:47;96277.22;;;18.08;77.26
70684;BME280;58263;48.146;11.440;2022-08-06T06:16:18;96278.81;;;18.04;77.45
70684;BME280;58263;48.146;11.440;2022-08-06T06:24:41;96292.84;;;17.90;77.86
70684;BME280;58263;48.146;11.440;2022-08-06T06:27:20;96288.47;;;17.89;76.17
70684;BME280;58263;48.146;11.440;2022-08-06T06:29:54;96294.44;;;17.86;76.68
70684;BME280;58263;48.146;11.440;2022-08-06T06:32:48;96300.25;;;17.63;76.74
70684;BME280;58263;48.146;11.440;2022-08-06T06:35:28;96310.09;;;17.69;76.79
70684;BME280;58263;48.146;11.440;2022-08-06T06:46:06;96320.38;;;17.67;76.38
70684;BME280;58263;48.146;11.440;2022-08-06T06:51:07;96320.31;;;17.56;75.66
70684;BME280;58263;48.146;11.440;2022-08-06T06:53:37;96318.72;;;17.61;75.57
70684;BME280;58263;48.146;11.440;2022-08-06T06:56:04;96319.59;;;17.71;74.47
70684;BME280;58263;48.146;11.440;2022-08-06T07:00:57;96317.19;;;17.80;74.89
70684;BME280;58263;48.146;11.440;2022-08-06T07:03:24;96311.22;;;17.78;75.17
70684;BME280;58263;48.146;11.440;2022-08-06T07:05:53;96321.66;;;17.92;74.31
70684;BME280;58263;48.146;11.440;2022-08-06T07:08:20;96317.72;;;17.77;74.76
70684;BME280;58263;48.146;11.440;2022-08-06T07:10:48;96326.47;;;17.89;75.31
70684;BME280;58263;48.146;11.440;2022-08-06T07:13:14;96317.88;;;17.98;73.87
70684;BME280;58263;48.146;11.440;2022-08-06T07:15:41;96321.16;;;18.00;74.02
70684;BME280;58263;48.146;11.440;2022-08-06T07:18:07;96321.59;;;17.86;74.65
70684;BME280;58263;48.146;11.440;2022-08-06T07:20:34;96333.09;;;17.99;74.56
70684;BME280;58263;48.146;11.440;2022-08-06T07:23:07;96330.91;;;17.96;75.92
70684;BME280;58263;48.146;11.440;2022-08-06T07:25:36;96332.00;;;18.05;74.59
70684;BME280;58263;48.146;11.440;2022-08-06T07:28:03;96337.22;;;18.06;73.78
70684;BME280;58263;48.146;11.440;2022-08-06T07:30:29;96330.69;;;18.13;73.21
70684;BME280;58263;48.146;11.440;2022-08-06T07:32:58;96329.91;;;18.17;72.90
70684;BME280;58263;48.146;11.440;2022-08-06T07:35:24;96342.50;;;18.34;73.01
70684;BME280;58263;48.146;11.440;2022-08-06T07:37:56;96343.81;;;18.26;72.78
70684;BME280;58263;48.146;11.440;2022-08-06T07:40:25;96347.00;;;18.13;72.24
70684;BME280;58263;48.146;11.440;2022-08-06T07:43:13;96342.34;;;18.03;72.66
70684;BME280;58263;48.146;11.440;2022-08-06T07:45:40;96351.31;;;18.08;73.94
70684;BME280;58263;48.146;11.440;2022-08-06T07:48:09;96346.81;;;18.30;72.66
70684;BME280;58263;48.146;11.440;2022-08-06T07:50:35;96348.66;;;18.19;73.88
70684;BME280;58263;48.146;11.440;2022-08-06T07:53:01;96347.88;;;18.23;73.45
70684;BME280;58263;48.146;11.440;2022-08-06T07:55:27;96349.50;;;18.24;73.24
70684;BME280;58263;48.146;11.440;2022-08-06T07:57:55;96350.63;;;18.29;72.84
70684;BME280;58263;48.146;11.440;2022-08-06T08:00:22;96346.78;;;18.24;72.77
70684;BME280;58263;48.146;11.440;2022-08-06T08:02:49;96353.28;;;18.23;72.99
70684;BME280;58263;48.146;11.440;2022-08-06T08:05:36;96362.00;;;18.31;73.03
70684;BME280;58263;48.146;11.440;2022-08-06T08:08:20;96359.28;;;18.31;73.25
70684;BME280;58263;48.146;11.440;2022-08-06T08:10:46;96366.63;;;18.30;71.73
70684;BME280;58263;48.146;11.440;2022-08-06T08:13:12;96362.53;;;18.22;71.33
70684;BME280;58263;48.146;11.440;2022-08-06T08:15:38;96362.56;;;18.33;71.67
70684;BME280;58263;48.146;11.440;2022-08-06T08:18:04;96359.84;;;18.28;71.80
70684;BME280;58263;48.146;11.440;2022-08-06T08:20:30;96363.66;;;18.32;72.38
70684;BME280;58263;48.146;11.440;2022-08-06T08:22:57;96361.00;;;18.42;71.67
70684;BME280;58263;48.146;11.440;2022-08-06T08:25:22;96365.84;;;18.30;72.82
70684;BME280;58263;48.146;11.440;2022-08-06T08:27:48;96362.56;;;18.33;72.14
70684;BME280;58263;48.146;11.440;2022-08-06T08:30:13;96369.66;;;18.39;72.71
70684;BME280;58263;48.146;11.440;2022-08-06T08:32:38;96373.44;;;18.33;72.07
70684;BME280;58263;48.146;11.440;2022-08-06T08:35:04;96369.38;;;18.35;73.07
70684;BME280;58263;48.146;11.440;2022-08-06T08:37:29;96377.25;;;18.37;72.30
70684;BME280;58263;48.146;11.440;2022-08-06T08:39:55;96375.94;;;18.50;70.76
70684;BME280;58263;48.146;11.440;2022-08-06T08:42:38;96378.94;;;18.48;71.93
70684;BME280;58263;48.146;11.440;2022-08-06T08:45:05;96383.00;;;18.46;71.07
70684;BME280;58263;48.146;11.440;2022-08-06T08:47:32;96383.81;;;18.41;71.23
70684;BME280;58263;48.146;11.440;2022-08-06T08:50:01;96382.22;;;18.50;72.41
70684;BME280;58263;48.146;11.440;2022-08-06T08:52:34;96384.06;;;18.45;72.83
70684;BME280;58263;48.146;11.440;2022-08-06T08:55:03;96380.78;;;18.37;71.89
70684;BME280;58263;48.146;11.440;2022-08-06T08:57:30;96388.44;;;18.46;72.02
70684;BME280;58263;48.146;11.440;2022-08-06T08:59:56;96396.53;;;18.40;73.04
70684;BME280;58263;48.146;11.440;2022-08-06T09:02:24;96399.53;;;18.39;72.02
70684;BME280;58263;48.146;11.440;2022-08-06T09:04:52;96403.31;;;18.33;72.82
70684;BME280;58263;48.146;11.440;2022-08-06T09:07:18;96402.56;;;18.48;71.79
70684;BME280;58263;48.146;11.440;2022-08-06T09:09:44;96402.84;;;18.51;70.66
70684;BME280;58263;48.146;11.440;2022-08-06T09:12:10;96402.84;;;18.46;71.58
70684;BME280;58263;48.146;11.440;2022-08-06T09:14:36;96407.44;;;18.46;71.67
70684;BME280;58263;48.146;11.440;2022-08-06T09:17:03;96413.16;;;18.44;71.80
70684;BME280;58263;48.146;11.440;2022-08-06T09:19:30;96414.25;;;18.48;71.45
70684;BME280;58263;48.146;11.440;2022-08-06T09:21:56;96409.28;;;18.35;72.10
70684;BME280;58263;48.146;11.440;2022-08-06T09:24:23;96408.25;;;18.41;72.42
70684;BME280;58263;48.146;11.440;2022-08-06T09:27:08;96411.88;;;18.62;71.73
70684;BME280;58263;48.146;11.440;2022-08-06T09:29:34;96415.09;;;18.49;72.32
70684;BME280;58263;48.146;11.440;2022-08-06T09:32:02;96414.75;;;18.40;71.91
70684;BME280;58263;48.146;11.440;2022-08-06T09:34:35;96418.59;;;18.49;73.68
70684;BME280;58263;48.146;11.440;2022-08-06T09:37:00;96423.19;;;18.38;73.30
70684;BME280;58263;48.146;11.440;2022-08-06T09:39:30;96423.25;;;18.54;73.04
70684;BME280;58263;48.146;11.440;2022-08-06T09:41:56;96420.22;;;18.45;72.40
70684;BME280;58263;48.146;11.440;2022-08-06T09:44:22;96424.22;;;18.32;72.73
70684;BME280;58263;48.146;11.440;2022-08-06T09:46:48;96422.91;;;18.40;72.47
70684;BME280;58263;48.146;11.440;2022-08-06T09:49:18;96416.94;;;18.38;72.28
70684;BME280;58263;48.146;11.440;2022-08-06T09:51:43;96416.69;;;18.50;71.29
70684;BME280;58263;48.146;11.440;2022-08-06T09:54:12;96411.03;;;18.56;71.79
70684;BME280;58263;48.146;11.440;2022-08-06T09:56:44;96426.53;;;18.56;72.92
70684;BME280;58263;48.146;11.440;2022-08-06T09:59:12;96420.25;;;18.55;72.27
70684;BME280;58263;48.146;11.440;2022-08-06T10:01:46;96420.06;;;18.72;73.31
70684;BME280;58263;48.146;11.440;2022-08-06T10:04:14;96421.56;;;19.01;71.85
70684;BME280;58263;48.146;11.440;2022-08-06T10:07:00;96416.91;;;18.96;71.35
70684;BME280;58263;48.146;11.440;2022-08-06T10:09:27;96423.16;;;19.02;70.58
70684;BME280;58263;48.146;11.440;2022-08-06T10:11:54;96420.47;;;18.97;71.75
70684;BME280;58263;48.146;11.440;2022-08-06T10:14:24;96425.34;;;18.95;71.06
70684;BME280;58263;48.146;11.440;2022-08-06T10:17:13;96427.00;;;19.01;71.43
70684;BME280;58263;48.146;11.440;2022-08-06T10:19:41;96422.94;;;19.14;69.99
70684;BME280;58263;48.146;11.440;2022-08-06T10:24:42;96417.03;;;19.79;69.95
70684;BME280;58263;48.146;11.440;2022-08-06T10:27:10;96426.31;;;19.88;68.61
70684;BME280;58263;48.146;11.440;2022-08-06T10:29:40;96426.28;;;20.03;68.80
70684;BME280;58263;48.146;11.440;2022-08-06T10:32:08;96428.47;;;19.91;67.59
70684;BME280;58263;48.146;11.440;2022-08-06T10:34:34;96433.13;;;19.85;68.51
70684;BME280;58263;48.146;11.440;2022-08-06T10:37:05;96432.00;;;20.02;67.52
70684;BME280;58263;48.146;11.440;2022-08-06T10:39:34;96431.44;;;20.20;67.29
70684;BME280;58263;48.146;11.440;2022-08-06T10:42:02;96429.81;;;20.19;67.29
70684;BME280;58263;48.146;11.440;2022-08-06T10:44:28;96436.63;;;20.06;67.00
70684;BME280;58263;48.146;11.440;2022-08-06T10:46:55;96434.75;;;20.02;67.44
70684;BME280;58263;48.146;11.440;2022-08-06T10:49:21;96436.66;;;19.96;67.67
70684;BME280;58263;48.146;11.440;2022-08-06T10:51:50;96433.09;;;19.90;68.05
70684;BME280;58263;48.146;11.440;2022-08-06T10:54:16;96437.72;;;19.80;67.07
70684;BME280;58263;48.146;11.440;2022-08-06T10:56:42;96441.81;;;19.77;68.67
70684;BME280;58263;48.146;11.440;2022-08-06T10:59:07;96438.28;;;19.87;67.38
70684;BME280;58263;48.146;11.440;2022-08-06T11:12:26;96416.09;;;20.55;66.87
70684;BME280;58263;48.146;11.440;2022-08-06T11:14:57;96423.72;;;20.69;67.68
70684;BME280;58263;48.146;11.440;2022-08-06T11:17:23;96420.16;;;20.58;66.49
70684;BME280;58263;48.146;11.440;2022-08-06T11:19:49;96419.38;;;20.47;64.03
70684;BME280;58263;48.146;11.440;2022-08-06T11:22:35;96417.22;;;20.39;65.08
70684;BME280;58263;48.146;11.440;2022-08-06T11:25:01;96418.59;;;20.36;64.57
70684;BME280;58263;48.146;11.440;2022-08-06T11:27:47;96417.28;;;20.18;64.91
70684;BME280;58263;48.146;11.440;2022-08-06T11:30:14;96414.22;;;20.35;65.68
70684;BME280;58263;48.146;11.440;2022-08-06T11:32:44;96419.94;;;20.44;65.62
70684;BME280;58263;48.146;11.440;2022-08-06T11:35:43;96411.78;;;20.44;64.77
70684;BME280;58263;48.146;11.440;2022-08-06T11:38:11;96412.88;;;20.33;64.70
70684;BME280;58263;48.146;11.440;2022-08-06T11:40:54;96410.13;;;20.43;65.81
70684;BME280;58263;48.146;11.440;2022-08-06T11:46:30;96399.22;;;20.53;65.26
70684;BME280;58263;48.146;11.440;2022-08-06T11:54:27;96400.81;;;20.54;63.71
70684;BME280;58263;48.146;11.440;2022-08-06T11:59:34;96402.72;;;20.59;64.51
70684;BME280;58263;48.146;11.440;2022-08-06T12:02:02;96401.34;;;20.72;63.69
70684;BME280;58263;48.146;11.440;2022-08-06T12:07:28;96395.06;;;20.61;63.67
70684;BME280;58263;48.146;11.440;2022-08-06T12:12:48;96405.41;;;20.80;63.88
70684;BME280;58263;48.146;11.440;2022-08-06T12:20:29;96395.25;;;20.90;62.11
70684;BME280;58263;48.146;11.440;2022-08-06T12:22:56;96389.50;;;20.97;61.78
70684;BME280;58263;48.146;11.440;2022-08-06T12:25:29;96392.06;;;21.23;61.47
70684;BME280;58263;48.146;11.440;2022-08-06T12:27:56;96391.88;;;21.49;62.11
70684;BME280;58263;48.146;11.440;2022-08-06T12:30:21;96392.59;;;21.65;61.25
70684;BME280;58263;48.146;11.440;2022-08-06T12:32:47;96387.13;;;21.65;60.41
70684;BME280;58263;48.146;11.440;2022-08-06T12:35:12;96390.56;;;21.81;60.77
70684;BME280;58263;48.146;11.440;2022-08-06T12:37:43;96388.19;;;21.69;59.61
70684;BME280;58263;48.146;11.440;2022-08-06T12:40:13;96385.56;;;21.58;60.63
70684;BME280;58263;48.146;11.440;2022-08-06T12:45:27;96383.63;;;21.59;61.93
70684;BME280;58263;48.146;11.440;2022-08-06T12:48:00;96388.13;;;21.39;61.42
70684;BME280;58263;48.146;11.440;2022-08-06T12:50:26;96381.38;;;21.26;61.82
70684;BME280;58263;48.146;11.440;2022-08-06T12:53:13;96381.81;;;21.44;60.53
70684;BME280;58263;48.146;11.440;2022-08-06T12:55:48;96388.69;;;21.36;61.00
70684;BME280;58263;48.146;11.440;2022-08-06T12:58:15;96380.81;;;21.30;61.77
70684;BME280;58263;48.146;11.440;2022-08-06T13:00:42;96373.00;;;21.18;61.03
70684;BME280;58263;48.146;11.440;2022-08-06T13:03:09;96381.94;;;21.28;61.40
70684;BME280;58263;48.146;11.440;2022-08-06T13:05:35;96386.63;;;21.23;61.23
70684;BME280;58263;48.146;11.440;2022-08-06T13:08:01;96381.47;;;21.16;61.11
70684;BME280;58263;48.146;11.440;2022-08-06T13:10:27;96374.44;;;21.05;61.84
70684;BME280;58263;48.146;11.440;2022-08-06T13:13:04;96375.50;;;21.09;61.88
70684;BME280;58263;48.146;11.440;2022-08-06T13:15:30;96369.72;;;21.16;61.70
70684;BME280;58263;48.146;11.440;2022-08-06T13:18:13;96377.63;;;21.17;61.10
70684;BME280;58263;48.146;11.440;2022-08-06T13:20:44;96376.16;;;20.96;61.57
70684;BME280;58263;48.146;11.440;2022-08-06T13:23:11;96376.09;;;21.01;61.25
70684;BME280;58263;48.146;11.440;2022-08-06T13:25:46;96375.56;;;21.04;60.40
70684;BME280;58263;48.146;11.440;2022-08-06T13:28:13;96372.56;;;21.00;61.26
70684;BME280;58263;48.146;11.440;2022-08-06T13:30:41;96372.00;;;21.03;60.96
70684;BME280;58263;48.146;11.440;2022-08-06T13:33:19;96376.16;;;20.96;61.43
70684;BME280;58263;48.146;11.440;2022-08-06T13:35:52;96381.69;;;21.20;61.23
70684;BME280;58263;48.146;11.440;2022-08-06T13:38:29;96377.00;;;21.31;60.24
70684;BME280;58263;48.146;11.440;2022-08-06T13:40:55;96378.47;;;21.52;60.46
70684;BME280;58263;48.146;11.440;2022-08-06T13:43:21;96380.16;;;21.48;59.26
70684;BME280;58263;48.146;11.440;2022-08-06T13:46:14;96378.19;;;21.59;59.72
70684;BME280;58263;48.146;11.440;2022-08-06T13:48:47;96388.94;;;21.80;58.46
70684;BME280;58263;48.146;11.440;2022-08-06T13:51:14;96383.91;;;21.63;57.61
70684;BME280;58263;48.146;11.440;2022-08-06T13:53:40;96379.31;;;21.87;57.82
70684;BME280;58263;48.146;11.440;2022-08-06T13:56:05;96381.75;;;21.89;58.78
70684;BME280;58263;48.146;11.440;2022-08-06T13:58:31;96372.13;;;21.97;58.92
70684;BME280;58263;48.146;11.440;2022-08-06T14:00:57;96385.34;;;21.84;57.42
70684;BME280;58263;48.146;11.440;2022-08-06T14:03:22;96381.75;;;21.89;59.66
70684;BME280;58263;48.146;11.440;2022-08-06T14:05:48;96384.16;;;21.95;59.43